sensor_id;sensor_type;location;lat;lon;timestamp;P1;durP1;ratioP1;P2;durP2;ratioP2
763;SDS011;5393;48.728;9.140;2022-07-10T00:01:02;3.40;;;3.20;;
763;SDS011;5393;48.728;9.140;2022-07-10T00:03:47;3.37;;;2.97;;
763;SDS011;5393;48.728;9.140;2022-07-10T00:06:33;4.13;;;3.73;;
763;SDS011;5393;48.728;9.140;2022-07-10T00:09:18;4.40;;;3.20;;
763;SDS011;5393;48.728;9.140;2022-07-10T00:12:02;4.10;;;3.67;;
763;SDS011;5393;48.728;9.140;2022-07-10T00:14:49;4.07;;;3.67;;
763;SDS011;5393;48.728;9.140;2022-07-10T00:17:33;3.90;;;3.47;;
763;SDS011;5393;48.728;9.140;2022-07-10T00:20:20;3.87;;;3.47;;
763;SDS011;5393;48.728;9.140;2022-07-10T00:23:04;3.80;;;3.50;;
763;SDS011;5393;48.728;9.140;2022-07-10T00:25:49;3.57;;;3.27;;
763;SDS011;5393;48.728;9.140;2022-07-10T00:28:33;4.23;;;3.80;;
763;SDS011;5393;48.728;9.140;2022-07-10T00:31:18;3.87;;;3.43;;
763;SDS011;5393;48.728;9.140;2022-07-10T00:34:03;3.80;;;3.30;;
763;SDS011;5393;48.728;9.140;2022-07-10T00:36:47;3.77;;;3.47;;
763;SDS011;5393;48.728;9.140;2022-07-10T00:39:31;4.43;;;4.00;;
763;SDS011;5393;48.728;9.140;2022-07-10T00:42:16;4.20;;;3.80;;
763;SDS011;5393;48.728;9.140;2022-07-10T00:45:01;4.50;;;4.10;;
763;SDS011;5393;48.728;9.140;2022-07-10T00:47:45;5.17;;;3.97;;
763;SDS011;5393;48.728;9.140;2022-07-10T00:50:30;4.03;;;3.70;;
763;SDS011;5393;48.728;9.140;2022-07-10T00:53:15;4.17;;;3.87;;
763;SDS011;5393;48.728;9.140;2022-07-10T00:56:00;5.33;;;3.40;;
763;SDS011;5393;48.728;9.140;2022-07-10T00:58:45;7.13;;;3.60;;
763;SDS011;5393;48.728;9.140;2022-07-10T01:01:31;4.83;;;4.40;;
763;SDS011;5393;48.728;9.140;2022-07-10T01:04:17;4.10;;;3.43;;
763;SDS011;5393;48.728;9.140;2022-07-10T01:07:02;3.70;;;3.40;;
763;SDS011;5393;48.728;9.140;2022-07-10T01:09:46;5.10;;;3.60;;
763;SDS011;5393;48.728;9.140;2022-07-10T01:12:31;4.20;;;3.80;;
763;SDS011;5393;48.728;9.140;2022-07-10T01:15:16;4.33;;;3.93;;
763;SDS011;5393;48.728;9.140;2022-07-10T01:18:01;4.20;;;3.80;;
763;SDS011;5393;48.728;9.140;2022-07-10T01:20:46;4.47;;;4.03;;
763;SDS011;5393;48.728;9.140;2022-07-10T01:23:30;4.90;;;4.40;;
763;SDS011;5393;48.728;9.140;2022-07-10T01:26:15;4.80;;;3.93;;
763;SDS011;5393;48.728;9.140;2022-07-10T01:29:02;4.67;;;4.27;;
763;SDS011;5393;48.728;9.140;2022-07-10T01:31:47;6.37;;;4.13;;
763;SDS011;5393;48.728;9.140;2022-07-10T01:34:31;5.13;;;4.63;;
763;SDS011;5393;48.728;9.140;2022-07-10T01:37:16;4.60;;;4.20;;
763;SDS011;5393;48.728;9.140;2022-07-10T01:40:00;3.93;;;3.53;;
763;SDS011;5393;48.728;9.140;2022-07-10T01:42:45;4.93;;;4.43;;
763;SDS011;5393;48.728;9.140;2022-07-10T01:45:30;4.57;;;4.17;;
763;SDS011;5393;48.728;9.140;2022-07-10T01:48:15;4.47;;;4.10;;
763;SDS011;5393;48.728;9.140;2022-07-10T01:50:59;4.50;;;3.90;;
763;SDS011;5393;48.728;9.140;2022-07-10T01:53:44;4.10;;;3.80;;
763;SDS011;5393;48.728;9.140;2022-07-10T01:56:29;5.13;;;4.70;;
763;SDS011;5393;48.728;9.140;2022-07-10T01:59:13;4.37;;;3.83;;
763;SDS011;5393;48.728;9.140;2022-07-10T02:01:58;4.77;;;4.33;;
763;SDS011;5393;48.728;9.140;2022-07-10T02:04:42;5.57;;;4.60;;
763;SDS011;5393;48.728;9.140;2022-07-10T02:07:28;4.90;;;4.50;;
763;SDS011;5393;48.728;9.140;2022-07-10T02:10:12;5.40;;;4.90;;
763;SDS011;5393;48.728;9.140;2022-07-10T02:12:57;6.73;;;6.13;;
763;SDS011;5393;48.728;9.140;2022-07-10T02:15:42;8.53;;;6.00;;
763;SDS011;5393;48.728;9.140;2022-07-10T02:18:26;6.87;;;6.10;;
763;SDS011;5393;48.728;9.140;2022-07-10T02:21:11;7.17;;;6.53;;
763;SDS011;5393;48.728;9.140;2022-07-10T02:23:56;8.90;;;8.00;;
763;SDS011;5393;48.728;9.140;2022-07-10T02:26:40;11.10;;;9.97;;
763;SDS011;5393;48.728;9.140;2022-07-10T02:29:25;10.00;;;9.00;;
763;SDS011;5393;48.728;9.140;2022-07-10T02:32:10;11.50;;;10.50;;
763;SDS011;5393;48.728;9.140;2022-07-10T02:34:54;11.53;;;10.53;;
763;SDS011;5393;48.728;9.140;2022-07-10T02:37:39;13.17;;;12.07;;
763;SDS011;5393;48.728;9.140;2022-07-10T02:40:24;14.47;;;13.27;;
763;SDS011;5393;48.728;9.140;2022-07-10T02:43:08;15.17;;;13.57;;
763;SDS011;5393;48.728;9.140;2022-07-10T02:45:53;15.10;;;13.63;;
763;SDS011;5393;48.728;9.140;2022-07-10T02:48:37;17.10;;;15.50;;
763;SDS011;5393;48.728;9.140;2022-07-10T02:51:22;16.50;;;15.00;;
763;SDS011;5393;48.728;9.140;2022-07-10T02:54:07;18.10;;;16.43;;
763;SDS011;5393;48.728;9.140;2022-07-10T02:56:51;17.60;;;16.10;;
763;SDS011;5393;48.728;9.140;2022-07-10T02:59:36;15.47;;;14.07;;
763;SDS011;5393;48.728;9.140;2022-07-10T03:02:20;16.10;;;14.60;;
763;SDS011;5393;48.728;9.140;2022-07-10T03:05:05;17.73;;;15.93;;
763;SDS011;5393;48.728;9.140;2022-07-10T03:07:50;17.70;;;16.10;;
763;SDS011;5393;48.728;9.140;2022-07-10T03:10:34;15.80;;;14.40;;
763;SDS011;5393;48.728;9.140;2022-07-10T03:13:19;16.43;;;14.80;;
763;SDS011;5393;48.728;9.140;2022-07-10T03:16:05;16.57;;;15.10;;
763;SDS011;5393;48.728;9.140;2022-07-10T03:18:49;15.47;;;14.07;;
763;SDS011;5393;48.728;9.140;2022-07-10T03:21:34;16.60;;;15.20;;
763;SDS011;5393;48.728;9.140;2022-07-10T03:24:18;16.17;;;14.63;;
763;SDS011;5393;48.728;9.140;2022-07-10T03:27:03;15.70;;;14.13;;
763;SDS011;5393;48.728;9.140;2022-07-10T03:29:49;15.80;;;14.40;;
763;SDS011;5393;48.728;9.140;2022-07-10T03:32:33;15.33;;;13.93;;
763;SDS011;5393;48.728;9.140;2022-07-10T03:35:18;12.93;;;11.73;;
763;SDS011;5393;48.728;9.140;2022-07-10T03:38:02;13.73;;;12.50;;
763;SDS011;5393;48.728;9.140;2022-07-10T03:40:47;13.90;;;12.70;;
763;SDS011;5393;48.728;9.140;2022-07-10T03:43:31;13.90;;;12.70;;
763;SDS011;5393;48.728;9.140;2022-07-10T03:46:16;16.10;;;14.53;;
763;SDS011;5393;48.728;9.140;2022-07-10T03:49:00;13.97;;;12.60;;
763;SDS011;5393;48.728;9.140;2022-07-10T03:51:45;14.63;;;13.23;;
763;SDS011;5393;48.728;9.140;2022-07-10T03:54:30;14.43;;;13.13;;
763;SDS011;5393;48.728;9.140;2022-07-10T03:57:14;13.93;;;12.70;;
763;SDS011;5393;48.728;9.140;2022-07-10T04:00:18;14.10;;;12.80;;
763;SDS011;5393;48.728;9.140;2022-07-10T04:03:03;15.53;;;14.17;;
763;SDS011;5393;48.728;9.140;2022-07-10T04:05:48;15.00;;;13.60;;
763;SDS011;5393;48.728;9.140;2022-07-10T04:08:33;13.77;;;12.50;;
763;SDS011;5393;48.728;9.140;2022-07-10T04:11:18;15.20;;;13.73;;
763;SDS011;5393;48.728;9.140;2022-07-10T04:14:02;15.60;;;14.20;;
763;SDS011;5393;48.728;9.140;2022-07-10T04:16:47;14.07;;;12.80;;
763;SDS011;5393;48.728;9.140;2022-07-10T04:19:31;13.30;;;11.97;;
763;SDS011;5393;48.728;9.140;2022-07-10T04:22:16;14.47;;;12.93;;
763;SDS011;5393;48.728;9.140;2022-07-10T04:25:01;14.23;;;12.73;;
763;SDS011;5393;48.728;9.140;2022-07-10T04:27:46;15.10;;;13.70;;
763;SDS011;5393;48.728;9.140;2022-07-10T04:30:31;14.63;;;13.33;;
763;SDS011;5393;48.728;9.140;2022-07-10T04:33:15;14.87;;;13.57;;
763;SDS011;5393;48.728;9.140;2022-07-10T04:36:00;13.33;;;12.13;;
763;SDS011;5393;48.728;9.140;2022-07-10T04:38:45;14.03;;;12.63;;
763;SDS011;5393;48.728;9.140;2022-07-10T04:41:29;15.30;;;13.90;;
763;SDS011;5393;48.728;9.140;2022-07-10T04:44:14;12.77;;;11.57;;
763;SDS011;5393;48.728;9.140;2022-07-10T04:46:58;11.93;;;10.83;;
763;SDS011;5393;48.728;9.140;2022-07-10T04:49:43;10.97;;;9.90;;
763;SDS011;5393;48.728;9.140;2022-07-10T04:52:28;11.67;;;9.30;;
763;SDS011;5393;48.728;9.140;2022-07-10T04:55:12;10.10;;;8.87;;
763;SDS011;5393;48.728;9.140;2022-07-10T04:57:57;10.40;;;9.40;;
763;SDS011;5393;48.728;9.140;2022-07-10T05:00:41;9.10;;;8.30;;
763;SDS011;5393;48.728;9.140;2022-07-10T05:03:27;9.60;;;8.70;;
763;SDS011;5393;48.728;9.140;2022-07-10T05:06:12;9.37;;;8.37;;
763;SDS011;5393;48.728;9.140;2022-07-10T05:08:56;8.73;;;7.87;;
763;SDS011;5393;48.728;9.140;2022-07-10T05:11:41;8.10;;;7.40;;
763;SDS011;5393;48.728;9.140;2022-07-10T05:14:26;9.43;;;8.53;;
763;SDS011;5393;48.728;9.140;2022-07-10T05:17:10;9.57;;;8.17;;
763;SDS011;5393;48.728;9.140;2022-07-10T05:19:55;7.80;;;6.80;;
763;SDS011;5393;48.728;9.140;2022-07-10T05:22:40;8.67;;;7.00;;
763;SDS011;5393;48.728;9.140;2022-07-10T05:25:24;6.80;;;6.20;;
763;SDS011;5393;48.728;9.140;2022-07-10T05:28:10;7.10;;;6.40;;
763;SDS011;5393;48.728;9.140;2022-07-10T05:30:57;6.30;;;5.70;;
763;SDS011;5393;48.728;9.140;2022-07-10T05:33:42;6.60;;;5.50;;
763;SDS011;5393;48.728;9.140;2022-07-10T05:36:27;5.70;;;5.20;;
763;SDS011;5393;48.728;9.140;2022-07-10T05:39:11;7.10;;;5.20;;
763;SDS011;5393;48.728;9.140;2022-07-10T05:41:56;7.73;;;5.40;;
763;SDS011;5393;48.728;9.140;2022-07-10T05:44:41;5.23;;;4.73;;
763;SDS011;5393;48.728;9.140;2022-07-10T05:47:25;5.10;;;4.60;;
763;SDS011;5393;48.728;9.140;2022-07-10T05:50:10;5.93;;;5.00;;
763;SDS011;5393;48.728;9.140;2022-07-10T05:52:55;4.70;;;4.30;;
763;SDS011;5393;48.728;9.140;2022-07-10T05:55:40;7.20;;;4.40;;
763;SDS011;5393;48.728;9.140;2022-07-10T05:58:25;6.40;;;4.00;;
763;SDS011;5393;48.728;9.140;2022-07-10T06:01:10;5.40;;;3.80;;
763;SDS011;5393;48.728;9.140;2022-07-10T06:03:54;5.77;;;3.40;;
763;SDS011;5393;48.728;9.140;2022-07-10T06:06:39;5.73;;;3.77;;
763;SDS011;5393;48.728;9.140;2022-07-10T06:09:24;5.43;;;3.60;;
763;SDS011;5393;48.728;9.140;2022-07-10T06:12:08;5.27;;;3.07;;
763;SDS011;5393;48.728;9.140;2022-07-10T06:14:53;4.70;;;2.60;;
763;SDS011;5393;48.728;9.140;2022-07-10T06:17:37;5.63;;;2.50;;
763;SDS011;5393;48.728;9.140;2022-07-10T06:20:22;3.83;;;2.67;;
763;SDS011;5393;48.728;9.140;2022-07-10T06:23:06;3.80;;;2.70;;
763;SDS011;5393;48.728;9.140;2022-07-10T06:25:51;4.30;;;2.50;;
763;SDS011;5393;48.728;9.140;2022-07-10T06:28:36;3.93;;;2.57;;
763;SDS011;5393;48.728;9.140;2022-07-10T06:31:20;4.00;;;3.43;;
763;SDS011;5393;48.728;9.140;2022-07-10T06:34:05;4.80;;;3.10;;
763;SDS011;5393;48.728;9.140;2022-07-10T06:36:50;6.20;;;2.83;;
763;SDS011;5393;48.728;9.140;2022-07-10T06:39:34;5.27;;;2.90;;
763;SDS011;5393;48.728;9.140;2022-07-10T06:42:19;3.90;;;2.63;;
763;SDS011;5393;48.728;9.140;2022-07-10T06:45:04;4.90;;;2.87;;
763;SDS011;5393;48.728;9.140;2022-07-10T06:47:49;4.23;;;2.77;;
763;SDS011;5393;48.728;9.140;2022-07-10T06:50:39;5.40;;;3.27;;
763;SDS011;5393;48.728;9.140;2022-07-10T06:53:25;3.47;;;2.60;;
763;SDS011;5393;48.728;9.140;2022-07-10T06:56:10;5.70;;;3.47;;
763;SDS011;5393;48.728;9.140;2022-07-10T06:58:57;3.33;;;3.00;;
763;SDS011;5393;48.728;9.140;2022-07-10T07:01:41;6.20;;;3.50;;
763;SDS011;5393;48.728;9.140;2022-07-10T07:04:26;4.50;;;3.13;;
763;SDS011;5393;48.728;9.140;2022-07-10T07:07:14;4.40;;;2.60;;
763;SDS011;5393;48.728;9.140;2022-07-10T07:09:59;3.20;;;2.57;;
763;SDS011;5393;48.728;9.140;2022-07-10T07:12:44;5.73;;;2.77;;
763;SDS011;5393;48.728;9.140;2022-07-10T07:15:28;3.60;;;2.80;;
763;SDS011;5393;48.728;9.140;2022-07-10T07:18:14;3.97;;;2.10;;
763;SDS011;5393;48.728;9.140;2022-07-10T07:20:59;6.93;;;2.63;;
763;SDS011;5393;48.728;9.140;2022-07-10T07:24:03;6.97;;;2.60;;
763;SDS011;5393;48.728;9.140;2022-07-10T07:26:49;3.30;;;2.40;;
763;SDS011;5393;48.728;9.140;2022-07-10T07:29:33;6.40;;;2.80;;
763;SDS011;5393;48.728;9.140;2022-07-10T07:32:18;4.70;;;2.50;;
763;SDS011;5393;48.728;9.140;2022-07-10T07:35:03;4.50;;;2.40;;
763;SDS011;5393;48.728;9.140;2022-07-10T07:37:49;4.03;;;2.73;;
763;SDS011;5393;48.728;9.140;2022-07-10T07:40:34;5.03;;;2.57;;
763;SDS011;5393;48.728;9.140;2022-07-10T07:43:21;2.43;;;1.93;;
763;SDS011;5393;48.728;9.140;2022-07-10T07:46:06;6.67;;;2.73;;
763;SDS011;5393;48.728;9.140;2022-07-10T07:48:51;4.00;;;2.13;;
763;SDS011;5393;48.728;9.140;2022-07-10T07:51:35;4.60;;;2.00;;
763;SDS011;5393;48.728;9.140;2022-07-10T07:54:20;9.33;;;2.17;;
763;SDS011;5393;48.728;9.140;2022-07-10T07:57:05;2.77;;;1.67;;
763;SDS011;5393;48.728;9.140;2022-07-10T07:59:50;3.17;;;1.90;;
763;SDS011;5393;48.728;9.140;2022-07-10T08:02:35;4.00;;;1.80;;
763;SDS011;5393;48.728;9.140;2022-07-10T08:05:20;4.07;;;1.40;;
763;SDS011;5393;48.728;9.140;2022-07-10T08:08:06;6.47;;;1.80;;
763;SDS011;5393;48.728;9.140;2022-07-10T08:10:54;4.73;;;1.80;;
763;SDS011;5393;48.728;9.140;2022-07-10T08:13:38;2.90;;;1.60;;
763;SDS011;5393;48.728;9.140;2022-07-10T08:16:23;2.70;;;1.50;;
763;SDS011;5393;48.728;9.140;2022-07-10T08:19:08;2.23;;;1.40;;
763;SDS011;5393;48.728;9.140;2022-07-10T08:21:52;4.23;;;1.60;;
763;SDS011;5393;48.728;9.140;2022-07-10T08:24:37;3.37;;;2.00;;
763;SDS011;5393;48.728;9.140;2022-07-10T08:27:23;5.07;;;1.40;;
763;SDS011;5393;48.728;9.140;2022-07-10T08:30:08;4.73;;;1.67;;
763;SDS011;5393;48.728;9.140;2022-07-10T08:32:53;3.97;;;1.80;;
763;SDS011;5393;48.728;9.140;2022-07-10T08:35:38;3.07;;;1.53;;
763;SDS011;5393;48.728;9.140;2022-07-10T08:38:22;3.40;;;2.00;;
763;SDS011;5393;48.728;9.140;2022-07-10T08:41:07;3.30;;;2.40;;
763;SDS011;5393;48.728;9.140;2022-07-10T08:43:54;3.20;;;1.73;;
763;SDS011;5393;48.728;9.140;2022-07-10T08:46:38;6.90;;;2.07;;
763;SDS011;5393;48.728;9.140;2022-07-10T08:49:27;2.90;;;1.90;;
763;SDS011;5393;48.728;9.140;2022-07-10T08:52:14;3.80;;;1.90;;
763;SDS011;5393;48.728;9.140;2022-07-10T08:55:01;5.30;;;1.90;;
763;SDS011;5393;48.728;9.140;2022-07-10T08:57:45;4.10;;;2.13;;
763;SDS011;5393;48.728;9.140;2022-07-10T09:00:31;4.47;;;2.20;;
763;SDS011;5393;48.728;9.140;2022-07-10T09:03:17;3.50;;;1.67;;
763;SDS011;5393;48.728;9.140;2022-07-10T09:06:02;2.60;;;2.10;;
763;SDS011;5393;48.728;9.140;2022-07-10T09:08:59;4.77;;;1.90;;
763;SDS011;5393;48.728;9.140;2022-07-10T09:11:44;7.30;;;2.33;;
763;SDS011;5393;48.728;9.140;2022-07-10T09:14:29;4.87;;;1.97;;
763;SDS011;5393;48.728;9.140;2022-07-10T09:17:16;4.37;;;1.77;;
763;SDS011;5393;48.728;9.140;2022-07-10T09:20:01;4.37;;;2.20;;
763;SDS011;5393;48.728;9.140;2022-07-10T09:22:46;3.67;;;1.73;;
763;SDS011;5393;48.728;9.140;2022-07-10T09:25:31;2.60;;;1.60;;
763;SDS011;5393;48.728;9.140;2022-07-10T09:28:18;3.50;;;1.63;;
763;SDS011;5393;48.728;9.140;2022-07-10T09:31:03;4.63;;;1.83;;
763;SDS011;5393;48.728;9.140;2022-07-10T09:33:48;3.53;;;1.60;;
763;SDS011;5393;48.728;9.140;2022-07-10T09:36:33;3.80;;;1.70;;
763;SDS011;5393;48.728;9.140;2022-07-10T09:39:18;3.50;;;1.80;;
763;SDS011;5393;48.728;9.140;2022-07-10T09:42:03;4.00;;;2.00;;
763;SDS011;5393;48.728;9.140;2022-07-10T09:44:47;3.30;;;1.60;;
763;SDS011;5393;48.728;9.140;2022-07-10T09:47:33;3.30;;;1.93;;
763;SDS011;5393;48.728;9.140;2022-07-10T09:50:22;5.10;;;2.00;;
763;SDS011;5393;48.728;9.140;2022-07-10T09:53:08;7.20;;;2.27;;
763;SDS011;5393;48.728;9.140;2022-07-10T09:55:53;2.80;;;1.87;;
763;SDS011;5393;48.728;9.140;2022-07-10T09:58:40;2.80;;;1.50;;
763;SDS011;5393;48.728;9.140;2022-07-10T10:01:25;3.73;;;1.90;;
763;SDS011;5393;48.728;9.140;2022-07-10T10:04:12;5.90;;;1.93;;
763;SDS011;5393;48.728;9.140;2022-07-10T10:06:58;3.90;;;1.50;;
763;SDS011;5393;48.728;9.140;2022-07-10T10:09:45;2.60;;;1.80;;
763;SDS011;5393;48.728;9.140;2022-07-10T10:12:44;3.63;;;2.10;;
763;SDS011;5393;48.728;9.140;2022-07-10T10:15:31;3.17;;;1.60;;
763;SDS011;5393;48.728;9.140;2022-07-10T10:18:17;3.23;;;1.90;;
763;SDS011;5393;48.728;9.140;2022-07-10T10:21:02;3.67;;;2.20;;
763;SDS011;5393;48.728;9.140;2022-07-10T10:23:51;4.20;;;2.07;;
763;SDS011;5393;48.728;9.140;2022-07-10T10:26:36;4.30;;;1.70;;
763;SDS011;5393;48.728;9.140;2022-07-10T10:29:21;3.63;;;1.80;;
763;SDS011;5393;48.728;9.140;2022-07-10T10:32:06;3.97;;;1.97;;
763;SDS011;5393;48.728;9.140;2022-07-10T10:34:52;3.40;;;1.97;;
763;SDS011;5393;48.728;9.140;2022-07-10T10:37:40;3.00;;;1.80;;
763;SDS011;5393;48.728;9.140;2022-07-10T10:40:31;4.53;;;1.63;;
763;SDS011;5393;48.728;9.140;2022-07-10T10:43:20;3.73;;;1.97;;
763;SDS011;5393;48.728;9.140;2022-07-10T10:46:23;2.87;;;1.70;;
763;SDS011;5393;48.728;9.140;2022-07-10T10:49:08;3.43;;;1.73;;
763;SDS011;5393;48.728;9.140;2022-07-10T10:52:09;3.20;;;2.10;;
763;SDS011;5393;48.728;9.140;2022-07-10T10:57:47;2.67;;;1.70;;
763;SDS011;5393;48.728;9.140;2022-07-10T11:00:32;3.63;;;1.80;;
763;SDS011;5393;48.728;9.140;2022-07-10T11:03:22;3.77;;;2.00;;
763;SDS011;5393;48.728;9.140;2022-07-10T11:06:12;5.10;;;1.77;;
763;SDS011;5393;48.728;9.140;2022-07-10T11:09:01;2.20;;;1.60;;
763;SDS011;5393;48.728;9.140;2022-07-10T11:12:08;3.00;;;2.00;;
763;SDS011;5393;48.728;9.140;2022-07-10T11:14:56;5.30;;;2.60;;
763;SDS011;5393;48.728;9.140;2022-07-10T11:17:50;3.77;;;1.90;;
763;SDS011;5393;48.728;9.140;2022-07-10T11:20:35;2.53;;;1.40;;
763;SDS011;5393;48.728;9.140;2022-07-10T11:23:31;3.43;;;1.77;;
763;SDS011;5393;48.728;9.140;2022-07-10T11:26:23;4.07;;;1.47;;
763;SDS011;5393;48.728;9.140;2022-07-10T11:29:08;2.60;;;1.63;;
763;SDS011;5393;48.728;9.140;2022-07-10T11:31:53;2.57;;;1.53;;
763;SDS011;5393;48.728;9.140;2022-07-10T11:34:38;2.10;;;1.30;;
763;SDS011;5393;48.728;9.140;2022-07-10T11:37:23;3.53;;;1.43;;
763;SDS011;5393;48.728;9.140;2022-07-10T11:40:13;4.70;;;1.60;;
763;SDS011;5393;48.728;9.140;2022-07-10T11:42:58;4.00;;;1.20;;
763;SDS011;5393;48.728;9.140;2022-07-10T11:45:44;2.27;;;1.20;;
763;SDS011;5393;48.728;9.140;2022-07-10T11:48:29;3.80;;;1.30;;
763;SDS011;5393;48.728;9.140;2022-07-10T11:51:21;4.23;;;1.10;;
763;SDS011;5393;48.728;9.140;2022-07-10T11:56:52;3.93;;;1.13;;
763;SDS011;5393;48.728;9.140;2022-07-10T11:59:37;2.03;;;1.17;;
763;SDS011;5393;48.728;9.140;2022-07-10T12:02:22;2.70;;;1.10;;
763;SDS011;5393;48.728;9.140;2022-07-10T12:05:06;2.40;;;1.10;;
763;SDS011;5393;48.728;9.140;2022-07-10T12:07:51;2.80;;;1.20;;
763;SDS011;5393;48.728;9.140;2022-07-10T12:10:36;2.93;;;1.00;;
763;SDS011;5393;48.728;9.140;2022-07-10T12:13:24;3.17;;;1.00;;
763;SDS011;5393;48.728;9.140;2022-07-10T12:16:09;1.57;;;1.00;;
763;SDS011;5393;48.728;9.140;2022-07-10T12:18:53;2.37;;;1.10;;
763;SDS011;5393;48.728;9.140;2022-07-10T12:21:43;3.73;;;1.10;;
763;SDS011;5393;48.728;9.140;2022-07-10T12:24:28;4.33;;;1.00;;
763;SDS011;5393;48.728;9.140;2022-07-10T12:27:38;1.97;;;1.00;;
763;SDS011;5393;48.728;9.140;2022-07-10T12:30:18;3.73;;;1.50;;
763;SDS011;5393;48.728;9.140;2022-07-10T12:33:06;2.60;;;1.43;;
763;SDS011;5393;48.728;9.140;2022-07-10T12:35:55;1.80;;;0.90;;
763;SDS011;5393;48.728;9.140;2022-07-10T12:38:40;2.10;;;0.93;;
763;SDS011;5393;48.728;9.140;2022-07-10T12:41:25;2.07;;;1.00;;
763;SDS011;5393;48.728;9.140;2022-07-10T12:44:09;1.97;;;0.80;;
763;SDS011;5393;48.728;9.140;2022-07-10T12:47:04;2.53;;;1.17;;
763;SDS011;5393;48.728;9.140;2022-07-10T12:50:05;1.90;;;0.90;;
763;SDS011;5393;48.728;9.140;2022-07-10T12:53:06;3.07;;;0.90;;
763;SDS011;5393;48.728;9.140;2022-07-10T12:55:51;2.10;;;0.90;;
763;SDS011;5393;48.728;9.140;2022-07-10T12:58:36;3.20;;;1.03;;
763;SDS011;5393;48.728;9.140;2022-07-10T13:01:20;3.57;;;1.30;;
763;SDS011;5393;48.728;9.140;2022-07-10T13:04:05;3.63;;;1.00;;
763;SDS011;5393;48.728;9.140;2022-07-10T13:06:50;4.40;;;0.90;;
763;SDS011;5393;48.728;9.140;2022-07-10T13:09:34;2.97;;;1.10;;
763;SDS011;5393;48.728;9.140;2022-07-10T13:12:24;1.70;;;0.90;;
763;SDS011;5393;48.728;9.140;2022-07-10T13:15:09;2.17;;;0.60;;
763;SDS011;5393;48.728;9.140;2022-07-10T13:17:53;3.07;;;0.90;;
763;SDS011;5393;48.728;9.140;2022-07-10T13:20:38;2.00;;;0.77;;
763;SDS011;5393;48.728;9.140;2022-07-10T13:23:23;2.70;;;0.90;;
763;SDS011;5393;48.728;9.140;2022-07-10T13:26:09;1.53;;;0.70;;
763;SDS011;5393;48.728;9.140;2022-07-10T13:28:54;2.10;;;0.80;;
763;SDS011;5393;48.728;9.140;2022-07-10T13:31:38;2.23;;;0.90;;
763;SDS011;5393;48.728;9.140;2022-07-10T13:34:23;1.57;;;0.70;;
763;SDS011;5393;48.728;9.140;2022-07-10T13:37:08;2.63;;;0.70;;
763;SDS011;5393;48.728;9.140;2022-07-10T13:39:55;2.87;;;1.10;;
763;SDS011;5393;48.728;9.140;2022-07-10T13:42:39;1.40;;;0.70;;
763;SDS011;5393;48.728;9.140;2022-07-10T13:45:24;2.43;;;0.80;;
763;SDS011;5393;48.728;9.140;2022-07-10T13:48:13;1.93;;;0.70;;
763;SDS011;5393;48.728;9.140;2022-07-10T13:50:58;2.17;;;0.83;;
763;SDS011;5393;48.728;9.140;2022-07-10T13:53:43;2.13;;;0.73;;
763;SDS011;5393;48.728;9.140;2022-07-10T13:56:28;2.10;;;0.90;;
763;SDS011;5393;48.728;9.140;2022-07-10T13:59:13;2.57;;;0.90;;
763;SDS011;5393;48.728;9.140;2022-07-10T14:01:57;2.90;;;1.00;;
763;SDS011;5393;48.728;9.140;2022-07-10T14:04:42;3.60;;;1.00;;
763;SDS011;5393;48.728;9.140;2022-07-10T14:07:27;2.97;;;1.10;;
763;SDS011;5393;48.728;9.140;2022-07-10T14:10:12;2.80;;;0.80;;
763;SDS011;5393;48.728;9.140;2022-07-10T14:12:56;2.40;;;1.13;;
763;SDS011;5393;48.728;9.140;2022-07-10T14:15:41;3.90;;;1.30;;
763;SDS011;5393;48.728;9.140;2022-07-10T14:18:28;1.60;;;0.83;;
763;SDS011;5393;48.728;9.140;2022-07-10T14:21:20;2.60;;;0.90;;
763;SDS011;5393;48.728;9.140;2022-07-10T14:24:08;2.20;;;0.90;;
763;SDS011;5393;48.728;9.140;2022-07-10T14:26:53;1.53;;;0.80;;
763;SDS011;5393;48.728;9.140;2022-07-10T14:29:37;3.00;;;1.50;;
763;SDS011;5393;48.728;9.140;2022-07-10T14:32:24;1.67;;;0.80;;
763;SDS011;5393;48.728;9.140;2022-07-10T14:35:10;2.07;;;0.80;;
763;SDS011;5393;48.728;9.140;2022-07-10T14:37:55;2.47;;;0.70;;
763;SDS011;5393;48.728;9.140;2022-07-10T14:40:40;4.50;;;1.23;;
763;SDS011;5393;48.728;9.140;2022-07-10T14:43:25;2.30;;;1.03;;
763;SDS011;5393;48.728;9.140;2022-07-10T14:46:10;2.80;;;0.60;;
763;SDS011;5393;48.728;9.140;2022-07-10T14:48:54;2.70;;;0.80;;
763;SDS011;5393;48.728;9.140;2022-07-10T14:51:39;3.63;;;0.83;;
763;SDS011;5393;48.728;9.140;2022-07-10T14:54:23;2.33;;;1.10;;
763;SDS011;5393;48.728;9.140;2022-07-10T14:57:08;3.20;;;1.23;;
763;SDS011;5393;48.728;9.140;2022-07-10T14:59:52;2.93;;;1.70;;
763;SDS011;5393;48.728;9.140;2022-07-10T15:02:37;4.83;;;1.10;;
763;SDS011;5393;48.728;9.140;2022-07-10T15:05:22;3.87;;;1.00;;
763;SDS011;5393;48.728;9.140;2022-07-10T15:08:07;2.70;;;1.03;;
763;SDS011;5393;48.728;9.140;2022-07-10T15:10:52;2.07;;;1.20;;
763;SDS011;5393;48.728;9.140;2022-07-10T15:13:37;3.67;;;0.93;;
763;SDS011;5393;48.728;9.140;2022-07-10T15:16:22;2.40;;;0.83;;
763;SDS011;5393;48.728;9.140;2022-07-10T15:19:06;2.70;;;0.70;;
763;SDS011;5393;48.728;9.140;2022-07-10T15:21:53;3.67;;;1.07;;
763;SDS011;5393;48.728;9.140;2022-07-10T15:24:38;2.53;;;1.03;;
763;SDS011;5393;48.728;9.140;2022-07-10T15:27:24;3.40;;;0.90;;
763;SDS011;5393;48.728;9.140;2022-07-10T15:30:09;3.03;;;1.20;;
763;SDS011;5393;48.728;9.140;2022-07-10T15:32:55;2.80;;;0.87;;
763;SDS011;5393;48.728;9.140;2022-07-10T15:35:40;4.07;;;0.97;;
763;SDS011;5393;48.728;9.140;2022-07-10T15:38:24;2.63;;;0.80;;
763;SDS011;5393;48.728;9.140;2022-07-10T15:41:09;1.80;;;1.00;;
763;SDS011;5393;48.728;9.140;2022-07-10T15:43:53;1.93;;;0.93;;
763;SDS011;5393;48.728;9.140;2022-07-10T15:46:38;3.83;;;1.20;;
763;SDS011;5393;48.728;9.140;2022-07-10T15:49:24;2.40;;;0.70;;
763;SDS011;5393;48.728;9.140;2022-07-10T15:52:09;2.43;;;1.00;;
763;SDS011;5393;48.728;9.140;2022-07-10T15:54:53;6.40;;;0.97;;
763;SDS011;5393;48.728;9.140;2022-07-10T15:57:38;4.03;;;1.20;;
763;SDS011;5393;48.728;9.140;2022-07-10T16:00:24;2.10;;;0.90;;
763;SDS011;5393;48.728;9.140;2022-07-10T16:03:09;1.53;;;0.90;;
763;SDS011;5393;48.728;9.140;2022-07-10T16:05:54;1.93;;;0.87;;
763;SDS011;5393;48.728;9.140;2022-07-10T16:08:39;1.40;;;0.60;;
763;SDS011;5393;48.728;9.140;2022-07-10T16:11:23;3.17;;;0.90;;
763;SDS011;5393;48.728;9.140;2022-07-10T16:14:09;2.23;;;0.70;;
763;SDS011;5393;48.728;9.140;2022-07-10T16:16:54;4.30;;;1.13;;
763;SDS011;5393;48.728;9.140;2022-07-10T16:19:39;2.70;;;0.80;;
763;SDS011;5393;48.728;9.140;2022-07-10T16:22:24;3.30;;;0.80;;
763;SDS011;5393;48.728;9.140;2022-07-10T16:25:09;2.30;;;0.70;;
763;SDS011;5393;48.728;9.140;2022-07-10T16:28:12;2.40;;;1.07;;
763;SDS011;5393;48.728;9.140;2022-07-10T16:30:57;4.40;;;0.80;;
763;SDS011;5393;48.728;9.140;2022-07-10T16:33:43;2.70;;;0.90;;
763;SDS011;5393;48.728;9.140;2022-07-10T16:36:29;2.13;;;0.70;;
763;SDS011;5393;48.728;9.140;2022-07-10T16:39:14;5.03;;;1.10;;
763;SDS011;5393;48.728;9.140;2022-07-10T16:41:58;3.87;;;1.53;;
763;SDS011;5393;48.728;9.140;2022-07-10T16:44:43;2.27;;;1.20;;
763;SDS011;5393;48.728;9.140;2022-07-10T16:47:27;3.83;;;2.13;;
763;SDS011;5393;48.728;9.140;2022-07-10T16:50:14;2.80;;;1.70;;
763;SDS011;5393;48.728;9.140;2022-07-10T16:52:58;2.27;;;1.00;;
763;SDS011;5393;48.728;9.140;2022-07-10T16:55:43;2.37;;;1.27;;
763;SDS011;5393;48.728;9.140;2022-07-10T16:58:27;2.63;;;2.00;;
763;SDS011;5393;48.728;9.140;2022-07-10T17:01:12;5.10;;;3.57;;
763;SDS011;5393;48.728;9.140;2022-07-10T17:03:57;4.47;;;2.83;;
763;SDS011;5393;48.728;9.140;2022-07-10T17:06:42;6.43;;;2.80;;
763;SDS011;5393;48.728;9.140;2022-07-10T17:09:26;4.60;;;2.57;;
763;SDS011;5393;48.728;9.140;2022-07-10T17:12:11;5.53;;;2.33;;
763;SDS011;5393;48.728;9.140;2022-07-10T17:14:55;2.80;;;1.40;;
763;SDS011;5393;48.728;9.140;2022-07-10T17:17:40;4.90;;;1.27;;
763;SDS011;5393;48.728;9.140;2022-07-10T17:20:25;3.17;;;1.23;;
763;SDS011;5393;48.728;9.140;2022-07-10T17:23:09;3.00;;;1.20;;
763;SDS011;5393;48.728;9.140;2022-07-10T17:25:54;5.97;;;1.30;;